sensor_id;sensor_type;location;lat;lon;timestamp;P1;durP1;ratioP1;P2;durP2;ratioP2
77978;SDS011;67169;50.268;8.694;2023-11-19T00:01:31;13.55;;;7.38;;
77978;SDS011;67169;50.268;8.694;2023-11-19T00:03:58;14.77;;;7.65;;
77978;SDS011;67169;50.268;8.694;2023-11-19T00:06:26;14.93;;;7.72;;
77978;SDS011;67169;50.268;8.694;2023-11-19T00:08:53;11.43;;;6.38;;
77978;SDS011;67169;50.268;8.694;2023-11-19T00:11:19;13.07;;;6.82;;
77978;SDS011;67169;50.268;8.694;2023-11-19T00:13:46;15.23;;;7.80;;
77978;SDS011;67169;50.268;8.694;2023-11-19T00:16:13;11.82;;;7.30;;
77978;SDS011;67169;50.268;8.694;2023-11-19T00:18:40;13.35;;;7.35;;
77978;SDS011;67169;50.268;8.694;2023-11-19T00:21:06;12.32;;;6.32;;
77978;SDS011;67169;50.268;8.694;2023-11-19T00:23:36;14.48;;;7.55;;
77978;SDS011;67169;50.268;8.694;2023-11-19T00:26:03;11.38;;;7.15;;
77978;SDS011;67169;50.268;8.694;2023-11-19T00:28:31;13.70;;;6.93;;
77978;SDS011;67169;50.268;8.694;2023-11-19T00:30:58;15.98;;;6.85;;
77978;SDS011;67169;50.268;8.694;2023-11-19T00:33:24;12.88;;;6.57;;
77978;SDS011;67169;50.268;8.694;2023-11-19T00:35:51;16.35;;;7.55;;
77978;SDS011;67169;50.268;8.694;2023-11-19T00:38:17;11.32;;;5.53;;
77978;SDS011;67169;50.268;8.694;2023-11-19T00:40:45;15.10;;;6.80;;
77978;SDS011;67169;50.268;8.694;2023-11-19T00:43:12;13.05;;;6.30;;
77978;SDS011;67169;50.268;8.694;2023-11-19T00:45:38;14.32;;;7.80;;
77978;SDS011;67169;50.268;8.694;2023-11-19T00:48:05;11.63;;;6.95;;
77978;SDS011;67169;50.268;8.694;2023-11-19T00:50:32;13.57;;;7.05;;
77978;SDS011;67169;50.268;8.694;2023-11-19T00:52:58;12.65;;;6.63;;
77978;SDS011;67169;50.268;8.694;2023-11-19T00:55:25;12.85;;;5.90;;
77978;SDS011;67169;50.268;8.694;2023-11-19T00:57:53;12.95;;;6.47;;
77978;SDS011;67169;50.268;8.694;2023-11-19T01:00:21;13.02;;;7.05;;
77978;SDS011;67169;50.268;8.694;2023-11-19T01:02:51;11.80;;;6.72;;
77978;SDS011;67169;50.268;8.694;2023-11-19T01:05:18;15.95;;;6.22;;
77978;SDS011;67169;50.268;8.694;2023-11-19T01:07:47;14.20;;;5.70;;
77978;SDS011;67169;50.268;8.694;2023-11-19T01:10:13;14.80;;;6.65;;
77978;SDS011;67169;50.268;8.694;2023-11-19T01:12:40;15.73;;;5.95;;
77978;SDS011;67169;50.268;8.694;2023-11-19T01:15:09;12.38;;;7.22;;
77978;SDS011;67169;50.268;8.694;2023-11-19T01:17:36;13.15;;;6.95;;
77978;SDS011;67169;50.268;8.694;2023-11-19T01:20:03;10.40;;;5.35;;
77978;SDS011;67169;50.268;8.694;2023-11-19T01:22:31;8.10;;;4.50;;
77978;SDS011;67169;50.268;8.694;2023-11-19T01:24:58;11.93;;;6.45;;
77978;SDS011;67169;50.268;8.694;2023-11-19T01:27:25;9.75;;;5.15;;
77978;SDS011;67169;50.268;8.694;2023-11-19T01:29:54;13.15;;;7.05;;
77978;SDS011;67169;50.268;8.694;2023-11-19T01:32:22;11.38;;;5.43;;
77978;SDS011;67169;50.268;8.694;2023-11-19T01:34:49;13.90;;;7.28;;
77978;SDS011;67169;50.268;8.694;2023-11-19T01:37:16;12.88;;;6.63;;
77978;SDS011;67169;50.268;8.694;2023-11-19T01:39:43;10.93;;;6.80;;
77978;SDS011;67169;50.268;8.694;2023-11-19T01:42:10;11.50;;;5.05;;
77978;SDS011;67169;50.268;8.694;2023-11-19T01:44:37;10.73;;;6.93;;
77978;SDS011;67169;50.268;8.694;2023-11-19T01:47:04;11.52;;;5.43;;
77978;SDS011;67169;50.268;8.694;2023-11-19T01:52:00;8.00;;;4.82;;
77978;SDS011;67169;50.268;8.694;2023-11-19T01:54:27;15.77;;;7.13;;
77978;SDS011;67169;50.268;8.694;2023-11-19T01:56:54;14.23;;;6.78;;
77978;SDS011;67169;50.268;8.694;2023-11-19T01:59:23;15.02;;;7.00;;
77978;SDS011;67169;50.268;8.694;2023-11-19T02:01:52;16.27;;;8.43;;
77978;SDS011;67169;50.268;8.694;2023-11-19T02:04:19;15.45;;;8.70;;
77978;SDS011;67169;50.268;8.694;2023-11-19T02:06:48;11.85;;;6.60;;
77978;SDS011;67169;50.268;8.694;2023-11-19T02:09:20;18.25;;;8.90;;
77978;SDS011;67169;50.268;8.694;2023-11-19T02:11:47;19.77;;;9.15;;
77978;SDS011;67169;50.268;8.694;2023-11-19T02:14:16;16.17;;;8.85;;
77978;SDS011;67169;50.268;8.694;2023-11-19T02:16:43;18.42;;;8.55;;
77978;SDS011;67169;50.268;8.694;2023-11-19T02:19:09;22.42;;;9.25;;
77978;SDS011;67169;50.268;8.694;2023-11-19T02:21:36;17.42;;;8.48;;
77978;SDS011;67169;50.268;8.694;2023-11-19T02:24:05;17.48;;;8.45;;
77978;SDS011;67169;50.268;8.694;2023-11-19T02:26:36;15.45;;;7.10;;
77978;SDS011;67169;50.268;8.694;2023-11-19T02:29:07;15.93;;;7.82;;
77978;SDS011;67169;50.268;8.694;2023-11-19T02:31:34;15.52;;;7.72;;
77978;SDS011;67169;50.268;8.694;2023-11-19T02:34:01;17.38;;;7.50;;
77978;SDS011;67169;50.268;8.694;2023-11-19T02:36:28;15.80;;;7.63;;
77978;SDS011;67169;50.268;8.694;2023-11-19T02:38:55;13.18;;;6.85;;
77978;SDS011;67169;50.268;8.694;2023-11-19T02:41:21;17.05;;;7.97;;
77978;SDS011;67169;50.268;8.694;2023-11-19T02:43:48;17.08;;;8.40;;
77978;SDS011;67169;50.268;8.694;2023-11-19T02:46:16;13.63;;;7.65;;
77978;SDS011;67169;50.268;8.694;2023-11-19T02:48:44;13.00;;;7.05;;
77978;SDS011;67169;50.268;8.694;2023-11-19T02:51:11;16.42;;;7.47;;
77978;SDS011;67169;50.268;8.694;2023-11-19T02:53:38;16.75;;;8.13;;
77978;SDS011;67169;50.268;8.694;2023-11-19T02:56:05;14.63;;;7.60;;
77978;SDS011;67169;50.268;8.694;2023-11-19T02:58:44;13.75;;;7.22;;
77978;SDS011;67169;50.268;8.694;2023-11-19T03:01:11;15.48;;;7.70;;
77978;SDS011;67169;50.268;8.694;2023-11-19T03:03:49;9.45;;;5.53;;
77978;SDS011;67169;50.268;8.694;2023-11-19T03:06:19;15.55;;;8.15;;
77978;SDS011;67169;50.268;8.694;2023-11-19T03:08:46;12.88;;;5.97;;
77978;SDS011;67169;50.268;8.694;2023-11-19T03:11:13;13.50;;;7.57;;
77978;SDS011;67169;50.268;8.694;2023-11-19T03:13:40;12.38;;;6.35;;
77978;SDS011;67169;50.268;8.694;2023-11-19T03:16:07;11.80;;;6.90;;
77978;SDS011;67169;50.268;8.694;2023-11-19T03:18:33;13.93;;;6.75;;
77978;SDS011;67169;50.268;8.694;2023-11-19T03:21:01;12.85;;;6.63;;
77978;SDS011;67169;50.268;8.694;2023-11-19T03:23:28;13.25;;;5.68;;
77978;SDS011;67169;50.268;8.694;2023-11-19T03:25:56;9.02;;;5.45;;
77978;SDS011;67169;50.268;8.694;2023-11-19T03:28:22;11.32;;;6.90;;
77978;SDS011;67169;50.268;8.694;2023-11-19T03:30:50;11.45;;;6.45;;
77978;SDS011;67169;50.268;8.694;2023-11-19T03:33:18;14.52;;;7.47;;
77978;SDS011;67169;50.268;8.694;2023-11-19T03:35:44;13.35;;;7.03;;
77978;SDS011;67169;50.268;8.694;2023-11-19T03:38:12;14.10;;;8.25;;
77978;SDS011;67169;50.268;8.694;2023-11-19T03:40:39;17.77;;;7.22;;
77978;SDS011;67169;50.268;8.694;2023-11-19T03:43:06;12.02;;;6.38;;
77978;SDS011;67169;50.268;8.694;2023-11-19T03:45:33;11.00;;;5.82;;
77978;SDS011;67169;50.268;8.694;2023-11-19T03:48:01;15.60;;;8.25;;
77978;SDS011;67169;50.268;8.694;2023-11-19T03:50:27;9.88;;;6.25;;
77978;SDS011;67169;50.268;8.694;2023-11-19T03:52:54;13.13;;;6.13;;
77978;SDS011;67169;50.268;8.694;2023-11-19T03:55:22;7.40;;;4.25;;
77978;SDS011;67169;50.268;8.694;2023-11-19T03:57:48;11.57;;;6.00;;
77978;SDS011;67169;50.268;8.694;2023-11-19T04:00:15;12.68;;;6.15;;
77978;SDS011;67169;50.268;8.694;2023-11-19T04:02:42;11.30;;;6.03;;
77978;SDS011;67169;50.268;8.694;2023-11-19T04:05:09;10.13;;;5.80;;
77978;SDS011;67169;50.268;8.694;2023-11-19T04:07:36;8.73;;;4.70;;
77978;SDS011;67169;50.268;8.694;2023-11-19T04:10:03;9.27;;;5.13;;
77978;SDS011;67169;50.268;8.694;2023-11-19T04:12:31;6.95;;;3.20;;
77978;SDS011;67169;50.268;8.694;2023-11-19T04:14:57;7.90;;;4.38;;
77978;SDS011;67169;50.268;8.694;2023-11-19T04:17:24;8.73;;;3.53;;
77978;SDS011;67169;50.268;8.694;2023-11-19T04:19:51;7.20;;;4.40;;
77978;SDS011;67169;50.268;8.694;2023-11-19T04:22:17;5.72;;;2.92;;
77978;SDS011;67169;50.268;8.694;2023-11-19T04:24:44;6.35;;;4.50;;
77978;SDS011;67169;50.268;8.694;2023-11-19T04:27:10;9.55;;;4.55;;
77978;SDS011;67169;50.268;8.694;2023-11-19T04:29:38;11.00;;;5.60;;
77978;SDS011;67169;50.268;8.694;2023-11-19T04:32:05;9.25;;;5.60;;
77978;SDS011;67169;50.268;8.694;2023-11-19T04:34:32;12.60;;;5.85;;
77978;SDS011;67169;50.268;8.694;2023-11-19T04:36:59;14.93;;;6.50;;
77978;SDS011;67169;50.268;8.694;2023-11-19T04:39:28;9.85;;;5.50;;
77978;SDS011;67169;50.268;8.694;2023-11-19T04:41:55;14.57;;;6.43;;
77978;SDS011;67169;50.268;8.694;2023-11-19T04:44:21;12.32;;;5.43;;
77978;SDS011;67169;50.268;8.694;2023-11-19T04:46:49;8.35;;;4.97;;
77978;SDS011;67169;50.268;8.694;2023-11-19T04:49:16;9.82;;;5.63;;
77978;SDS011;67169;50.268;8.694;2023-11-19T04:51:44;12.55;;;6.05;;
77978;SDS011;67169;50.268;8.694;2023-11-19T04:54:12;10.65;;;5.50;;
77978;SDS011;67169;50.268;8.694;2023-11-19T04:56:39;11.55;;;6.68;;
77978;SDS011;67169;50.268;8.694;2023-11-19T04:59:06;11.18;;;5.90;;
77978;SDS011;67169;50.268;8.694;2023-11-19T05:01:33;11.13;;;5.72;;
77978;SDS011;67169;50.268;8.694;2023-11-19T05:04:01;11.60;;;6.50;;
77978;SDS011;67169;50.268;8.694;2023-11-19T05:06:28;16.50;;;7.20;;
77978;SDS011;67169;50.268;8.694;2023-11-19T05:08:56;11.20;;;5.82;;
77978;SDS011;67169;50.268;8.694;2023-11-19T05:11:23;12.02;;;5.38;;
77978;SDS011;67169;50.268;8.694;2023-11-19T05:13:49;10.77;;;5.07;;
77978;SDS011;67169;50.268;8.694;2023-11-19T05:16:16;12.88;;;5.63;;
77978;SDS011;67169;50.268;8.694;2023-11-19T05:18:44;12.02;;;5.57;;
77978;SDS011;67169;50.268;8.694;2023-11-19T05:21:12;9.10;;;5.18;;
77978;SDS011;67169;50.268;8.694;2023-11-19T05:23:38;10.45;;;4.82;;
77978;SDS011;67169;50.268;8.694;2023-11-19T05:26:06;10.23;;;5.05;;
77978;SDS011;67169;50.268;8.694;2023-11-19T05:28:32;10.88;;;5.15;;
77978;SDS011;67169;50.268;8.694;2023-11-19T05:30:59;10.98;;;5.90;;
77978;SDS011;67169;50.268;8.694;2023-11-19T05:33:26;12.25;;;5.47;;
77978;SDS011;67169;50.268;8.694;2023-11-19T05:35:52;12.20;;;6.03;;
77978;SDS011;67169;50.268;8.694;2023-11-19T05:38:20;6.78;;;4.07;;
77978;SDS011;67169;50.268;8.694;2023-11-19T05:40:47;9.20;;;4.63;;
77978;SDS011;67169;50.268;8.694;2023-11-19T05:43:14;11.00;;;5.85;;
77978;SDS011;67169;50.268;8.694;2023-11-19T05:45:41;11.57;;;6.00;;
77978;SDS011;67169;50.268;8.694;2023-11-19T05:48:08;8.48;;;4.60;;
77978;SDS011;67169;50.268;8.694;2023-11-19T05:50:35;15.20;;;5.22;;
77978;SDS011;67169;50.268;8.694;2023-11-19T05:53:02;8.95;;;4.28;;
77978;SDS011;67169;50.268;8.694;2023-11-19T05:55:33;10.40;;;5.13;;
77978;SDS011;67169;50.268;8.694;2023-11-19T05:57:59;9.82;;;5.50;;
77978;SDS011;67169;50.268;8.694;2023-11-19T06:00:26;16.15;;;5.25;;
77978;SDS011;67169;50.268;8.694;2023-11-19T06:02:52;10.35;;;5.38;;
77978;SDS011;67169;50.268;8.694;2023-11-19T06:05:19;9.75;;;4.53;;
77978;SDS011;67169;50.268;8.694;2023-11-19T06:07:46;8.35;;;4.28;;
77978;SDS011;67169;50.268;8.694;2023-11-19T06:10:12;9.48;;;4.57;;
77978;SDS011;67169;50.268;8.694;2023-11-19T06:12:43;8.52;;;4.75;;
77978;SDS011;67169;50.268;8.694;2023-11-19T06:15:11;8.52;;;3.80;;
77978;SDS011;67169;50.268;8.694;2023-11-19T06:17:38;12.85;;;5.47;;
77978;SDS011;67169;50.268;8.694;2023-11-19T06:20:05;10.02;;;4.70;;
77978;SDS011;67169;50.268;8.694;2023-11-19T06:22:32;11.63;;;5.47;;
77978;SDS011;67169;50.268;8.694;2023-11-19T06:25:00;9.63;;;4.95;;
77978;SDS011;67169;50.268;8.694;2023-11-19T06:27:32;12.55;;;5.50;;
77978;SDS011;67169;50.268;8.694;2023-11-19T06:30:00;11.10;;;5.35;;
77978;SDS011;67169;50.268;8.694;2023-11-19T06:32:27;9.25;;;5.10;;
77978;SDS011;67169;50.268;8.694;2023-11-19T06:34:54;12.25;;;5.00;;
77978;SDS011;67169;50.268;8.694;2023-11-19T06:37:22;14.50;;;5.63;;
77978;SDS011;67169;50.268;8.694;2023-11-19T06:39:48;13.60;;;5.75;;
77978;SDS011;67169;50.268;8.694;2023-11-19T06:42:15;11.63;;;5.32;;
77978;SDS011;67169;50.268;8.694;2023-11-19T06:44:42;11.38;;;5.15;;
77978;SDS011;67169;50.268;8.694;2023-11-19T06:47:10;16.85;;;6.03;;
77978;SDS011;67169;50.268;8.694;2023-11-19T06:49:36;17.40;;;5.75;;
77978;SDS011;67169;50.268;8.694;2023-11-19T06:52:03;14.10;;;5.50;;
77978;SDS011;67169;50.268;8.694;2023-11-19T06:54:30;17.73;;;6.45;;
77978;SDS011;67169;50.268;8.694;2023-11-19T06:56:57;19.65;;;6.70;;
77978;SDS011;67169;50.268;8.694;2023-11-19T06:59:23;11.60;;;5.57;;
77978;SDS011;67169;50.268;8.694;2023-11-19T07:01:50;14.27;;;5.53;;
77978;SDS011;67169;50.268;8.694;2023-11-19T07:04:18;14.18;;;5.35;;
77978;SDS011;67169;50.268;8.694;2023-11-19T07:06:44;9.32;;;5.45;;
77978;SDS011;67169;50.268;8.694;2023-11-19T07:09:11;11.35;;;5.97;;
77978;SDS011;67169;50.268;8.694;2023-11-19T07:11:39;13.63;;;5.60;;
77978;SDS011;67169;50.268;8.694;2023-11-19T07:14:06;10.40;;;5.00;;
77978;SDS011;67169;50.268;8.694;2023-11-19T07:16:34;7.93;;;3.78;;
77978;SDS011;67169;50.268;8.694;2023-11-19T07:19:02;9.13;;;4.35;;
77978;SDS011;67169;50.268;8.694;2023-11-19T07:21:30;10.80;;;5.20;;
77978;SDS011;67169;50.268;8.694;2023-11-19T07:23:58;12.57;;;5.18;;
77978;SDS011;67169;50.268;8.694;2023-11-19T07:26:25;12.77;;;4.28;;
77978;SDS011;67169;50.268;8.694;2023-11-19T07:28:52;11.73;;;4.30;;
77978;SDS011;67169;50.268;8.694;2023-11-19T07:31:18;8.05;;;4.30;;
77978;SDS011;67169;50.268;8.694;2023-11-19T07:33:45;6.07;;;3.65;;
77978;SDS011;67169;50.268;8.694;2023-11-19T07:36:12;7.97;;;3.90;;
77978;SDS011;67169;50.268;8.694;2023-11-19T07:38:41;8.63;;;4.18;;
77978;SDS011;67169;50.268;8.694;2023-11-19T07:41:07;10.90;;;4.95;;
77978;SDS011;67169;50.268;8.694;2023-11-19T07:43:37;6.63;;;3.95;;
77978;SDS011;67169;50.268;8.694;2023-11-19T07:46:05;8.50;;;4.93;;
77978;SDS011;67169;50.268;8.694;2023-11-19T07:48:36;13.30;;;4.68;;
77978;SDS011;67169;50.268;8.694;2023-11-19T07:51:02;12.52;;;3.63;;
77978;SDS011;67169;50.268;8.694;2023-11-19T07:53:29;8.13;;;4.05;;
77978;SDS011;67169;50.268;8.694;2023-11-19T07:55:57;8.88;;;3.60;;
77978;SDS011;67169;50.268;8.694;2023-11-19T07:58:24;10.20;;;5.15;;
77978;SDS011;67169;50.268;8.694;2023-11-19T08:00:51;11.07;;;4.72;;
77978;SDS011;67169;50.268;8.694;2023-11-19T08:03:18;7.78;;;4.13;;
77978;SDS011;67169;50.268;8.694;2023-11-19T08:05:44;7.38;;;3.78;;
77978;SDS011;67169;50.268;8.694;2023-11-19T08:08:12;8.10;;;3.75;;
77978;SDS011;67169;50.268;8.694;2023-11-19T08:10:38;9.07;;;4.68;;
77978;SDS011;67169;50.268;8.694;2023-11-19T08:13:07;7.95;;;4.47;;
77978;SDS011;67169;50.268;8.694;2023-11-19T08:20:27;10.48;;;3.95;;
77978;SDS011;67169;50.268;8.694;2023-11-19T08:22:53;5.20;;;3.10;;
77978;SDS011;67169;50.268;8.694;2023-11-19T08:25:20;6.82;;;3.85;;
77978;SDS011;67169;50.268;8.694;2023-11-19T08:27:47;6.22;;;4.15;;
77978;SDS011;67169;50.268;8.694;2023-11-19T08:30:15;8.43;;;4.18;;
77978;SDS011;67169;50.268;8.694;2023-11-19T08:32:41;8.57;;;3.75;;
77978;SDS011;67169;50.268;8.694;2023-11-19T08:35:08;9.63;;;3.40;;
77978;SDS011;67169;50.268;8.694;2023-11-19T08:37:35;8.07;;;3.38;;
77978;SDS011;67169;50.268;8.694;2023-11-19T08:40:02;10.38;;;3.38;;
77978;SDS011;67169;50.268;8.694;2023-11-19T08:42:30;5.55;;;2.88;;
77978;SDS011;67169;50.268;8.694;2023-11-19T08:44:56;8.25;;;3.42;;
77978;SDS011;67169;50.268;8.694;2023-11-19T08:47:25;7.85;;;3.65;;
77978;SDS011;67169;50.268;8.694;2023-11-19T08:52:18;8.80;;;3.28;;
77978;SDS011;67169;50.268;8.694;2023-11-19T08:54:45;5.97;;;3.50;;
77978;SDS011;67169;50.268;8.694;2023-11-19T08:57:11;6.10;;;2.55;;
77978;SDS011;67169;50.268;8.694;2023-11-19T08:59:38;4.43;;;2.58;;
77978;SDS011;67169;50.268;8.694;2023-11-19T09:02:04;3.40;;;2.28;;
77978;SDS011;67169;50.268;8.694;2023-11-19T09:04:33;4.90;;;2.28;;
77978;SDS011;67169;50.268;8.694;2023-11-19T09:07:01;3.55;;;1.30;;
77978;SDS011;67169;50.268;8.694;2023-11-19T09:09:27;2.13;;;1.42;;
77978;SDS011;67169;50.268;8.694;2023-11-19T09:11:54;5.63;;;1.00;;
77978;SDS011;67169;50.268;8.694;2023-11-19T09:14:20;2.80;;;0.93;;
77978;SDS011;67169;50.268;8.694;2023-11-19T09:16:49;1.50;;;0.47;;
77978;SDS011;67169;50.268;8.694;2023-11-19T09:19:15;3.00;;;0.93;;
77978;SDS011;67169;50.268;8.694;2023-11-19T09:21:44;3.95;;;0.70;;
77978;SDS011;67169;50.268;8.694;2023-11-19T09:24:10;2.42;;;0.55;;
77978;SDS011;67169;50.268;8.694;2023-11-19T09:26:37;2.78;;;0.95;;
77978;SDS011;67169;50.268;8.694;2023-11-19T09:29:06;2.05;;;0.30;;
77978;SDS011;67169;50.268;8.694;2023-11-19T09:31:33;1.70;;;0.70;;
77978;SDS011;67169;50.268;8.694;2023-11-19T09:34:00;3.75;;;0.68;;
77978;SDS011;67169;50.268;8.694;2023-11-19T09:36:27;5.30;;;0.63;;
77978;SDS011;67169;50.268;8.694;2023-11-19T09:38:55;1.88;;;0.52;;
77978;SDS011;67169;50.268;8.694;2023-11-19T09:41:21;3.08;;;0.88;;
77978;SDS011;67169;50.268;8.694;2023-11-19T09:43:49;4.90;;;0.65;;
77978;SDS011;67169;50.268;8.694;2023-11-19T09:46:16;5.43;;;1.00;;
77978;SDS011;67169;50.268;8.694;2023-11-19T09:48:43;1.35;;;0.40;;
77978;SDS011;67169;50.268;8.694;2023-11-19T09:51:11;6.18;;;1.35;;
77978;SDS011;67169;50.268;8.694;2023-11-19T09:53:38;3.50;;;0.90;;
77978;SDS011;67169;50.268;8.694;2023-11-19T09:56:07;2.15;;;0.70;;
77978;SDS011;67169;50.268;8.694;2023-11-19T09:58:34;4.65;;;0.75;;
77978;SDS011;67169;50.268;8.694;2023-11-19T10:01:01;3.13;;;0.52;;
77978;SDS011;67169;50.268;8.694;2023-11-19T10:03:32;2.05;;;0.52;;
77978;SDS011;67169;50.268;8.694;2023-11-19T10:05:59;5.22;;;0.90;;
77978;SDS011;67169;50.268;8.694;2023-11-19T10:08:28;4.47;;;1.38;;
77978;SDS011;67169;50.268;8.694;2023-11-19T10:10:55;4.35;;;0.57;;
77978;SDS011;67169;50.268;8.694;2023-11-19T10:13:27;6.13;;;0.60;;
77978;SDS011;67169;50.268;8.694;2023-11-19T10:15:54;3.40;;;0.73;;
77978;SDS011;67169;50.268;8.694;2023-11-19T10:18:23;3.95;;;0.55;;
77978;SDS011;67169;50.268;8.694;2023-11-19T10:20:51;5.05;;;0.98;;
77978;SDS011;67169;50.268;8.694;2023-11-19T10:23:18;1.30;;;0.50;;
77978;SDS011;67169;50.268;8.694;2023-11-19T10:25:45;9.57;;;1.05;;
77978;SDS011;67169;50.268;8.694;2023-11-19T10:28:11;3.97;;;0.80;;
77978;SDS011;67169;50.268;8.694;2023-11-19T10:30:42;3.05;;;0.70;;
77978;SDS011;67169;50.268;8.694;2023-11-19T10:33:09;5.85;;;0.80;;
77978;SDS011;67169;50.268;8.694;2023-11-19T10:35:50;8.60;;;0.98;;
77978;SDS011;67169;50.268;8.694;2023-11-19T10:38:18;2.92;;;0.60;;
77978;SDS011;67169;50.268;8.694;2023-11-19T10:43:12;5.63;;;0.60;;
77978;SDS011;67169;50.268;8.694;2023-11-19T10:45:39;3.13;;;0.73;;
77978;SDS011;67169;50.268;8.694;2023-11-19T10:48:07;5.80;;;0.93;;
77978;SDS011;67169;50.268;8.694;2023-11-19T10:50:34;4.78;;;1.38;;
77978;SDS011;67169;50.268;8.694;2023-11-19T10:53:02;5.68;;;1.42;;
77978;SDS011;67169;50.268;8.694;2023-11-19T10:55:30;5.85;;;0.88;;
77978;SDS011;67169;50.268;8.694;2023-11-19T10:57:58;4.68;;;0.60;;
77978;SDS011;67169;50.268;8.694;2023-11-19T11:00:28;2.15;;;0.77;;
77978;SDS011;67169;50.268;8.694;2023-11-19T11:03:00;2.17;;;0.30;;
77978;SDS011;67169;50.268;8.694;2023-11-19T11:05:29;6.55;;;0.68;;
77978;SDS011;67169;50.268;8.694;2023-11-19T11:08:00;6.70;;;0.85;;
77978;SDS011;67169;50.268;8.694;2023-11-19T11:10:27;5.57;;;0.80;;
77978;SDS011;67169;50.268;8.694;2023-11-19T11:12:59;5.22;;;0.70;;
77978;SDS011;67169;50.268;8.694;2023-11-19T11:15:29;6.78;;;1.05;;
77978;SDS011;67169;50.268;8.694;2023-11-19T11:17:59;3.70;;;1.27;;
77978;SDS011;67169;50.268;8.694;2023-11-19T11:20:28;4.82;;;0.95;;
77978;SDS011;67169;50.268;8.694;2023-11-19T11:23:02;3.58;;;0.90;;
77978;SDS011;67169;50.268;8.694;2023-11-19T11:25:44;6.10;;;1.00;;
77978;SDS011;67169;50.268;8.694;2023-11-19T11:28:26;9.18;;;2.13;;
77978;SDS011;67169;50.268;8.694;2023-11-19T11:31:08;5.10;;;1.17;;
77978;SDS011;67169;50.268;8.694;2023-11-19T11:33:57;2.65;;;0.82;;
77978;SDS011;67169;50.268;8.694;2023-11-19T11:36:38;2.95;;;1.00;;
77978;SDS011;67169;50.268;8.694;2023-11-19T11:39:14;3.63;;;0.60;;
77978;SDS011;67169;50.268;8.694;2023-11-19T11:41:41;4.20;;;1.05;;
77978;SDS011;67169;50.268;8.694;2023-11-19T11:44:10;5.15;;;1.05;;
77978;SDS011;67169;50.268;8.694;2023-11-19T11:46:54;2.22;;;0.60;;
77978;SDS011;67169;50.268;8.694;2023-11-19T11:49:25;6.38;;;0.93;;
77978;SDS011;67169;50.268;8.694;2023-11-19T11:52:03;6.13;;;0.95;;
77978;SDS011;67169;50.268;8.694;2023-11-19T11:54:30;5.53;;;0.90;;
77978;SDS011;67169;50.268;8.694;2023-11-19T11:57:01;4.72;;;1.00;;
77978;SDS011;67169;50.268;8.694;2023-11-19T11:59:31;3.28;;;0.90;;
77978;SDS011;67169;50.268;8.694;2023-11-19T12:02:02;1.88;;;0.70;;
77978;SDS011;67169;50.268;8.694;2023-11-19T12:04:29;5.93;;;1.23;;
77978;SDS011;67169;50.268;8.694;2023-11-19T12:07:07;8.32;;;0.77;;
77978;SDS011;67169;50.268;8.694;2023-11-19T12:09:39;5.47;;;0.70;;
77978;SDS011;67169;50.268;8.694;2023-11-19T12:12:07;2.97;;;0.95;;
77978;SDS011;67169;50.268;8.694;2023-11-19T12:15:01;5.82;;;1.02;;
77978;SDS011;67169;50.268;8.694;2023-11-19T12:17:43;5.32;;;0.90;;
77978;SDS011;67169;50.268;8.694;2023-11-19T12:20:15;2.60;;;0.82;;
77978;SDS011;67169;50.268;8.694;2023-11-19T12:22:44;4.28;;;0.95;;
77978;SDS011;67169;50.268;8.694;2023-11-19T12:25:13;4.57;;;1.30;;
77978;SDS011;67169;50.268;8.694;2023-11-19T12:27:41;3.00;;;0.82;;
77978;SDS011;67169;50.268;8.694;2023-11-19T12:30:10;5.03;;;1.33;;
77978;SDS011;67169;50.268;8.694;2023-11-19T12:32:37;2.28;;;0.88;;
77978;SDS011;67169;50.268;8.694;2023-11-19T12:35:05;3.58;;;1.05;;
77978;SDS011;67169;50.268;8.694;2023-11-19T12:37:38;2.80;;;0.82;;
77978;SDS011;67169;50.268;8.694;2023-11-19T12:40:11;1.77;;;0.60;;
77978;SDS011;67169;50.268;8.694;2023-11-19T12:42:40;4.32;;;1.23;;
77978;SDS011;67169;50.268;8.694;2023-11-19T12:45:06;6.07;;;1.27;;
77978;SDS011;67169;50.268;8.694;2023-11-19T12:47:35;3.05;;;1.02;;
77978;SDS011;67169;50.268;8.694;2023-11-19T12:50:02;5.40;;;1.45;;
77978;SDS011;67169;50.268;8.694;2023-11-19T12:52:29;2.20;;;0.82;;
77978;SDS011;67169;50.268;8.694;2023-11-19T12:54:55;4.88;;;0.88;;
77978;SDS011;67169;50.268;8.694;2023-11-19T12:57:36;2.40;;;0.55;;
77978;SDS011;67169;50.268;8.694;2023-11-19T13:00:04;4.30;;;0.73;;
77978;SDS011;67169;50.268;8.694;2023-11-19T13:02:44;3.40;;;0.73;;
77978;SDS011;67169;50.268;8.694;2023-11-19T13:05:24;4.65;;;0.90;;
77978;SDS011;67169;50.268;8.694;2023-11-19T13:08:02;3.72;;;0.77;;
77978;SDS011;67169;50.268;8.694;2023-11-19T13:10:30;2.03;;;0.40;;
77978;SDS011;67169;50.268;8.694;2023-11-19T13:13:03;4.22;;;0.85;;
77978;SDS011;67169;50.268;8.694;2023-11-19T13:15:31;4.05;;;0.60;;
77978;SDS011;67169;50.268;8.694;2023-11-19T13:17:58;5.35;;;0.85;;
77978;SDS011;67169;50.268;8.694;2023-11-19T13:20:25;2.05;;;0.40;;
77978;SDS011;67169;50.268;8.694;2023-11-19T13:22:55;3.80;;;0.70;;
77978;SDS011;67169;50.268;8.694;2023-11-19T13:25:23;3.85;;;0.93;;
77978;SDS011;67169;50.268;8.694;2023-11-19T13:27:50;6.07;;;1.05;;
77978;SDS011;67169;50.268;8.694;2023-11-19T13:30:18;4.55;;;1.00;;
77978;SDS011;67169;50.268;8.694;2023-11-19T13:32:45;2.08;;;0.50;;
77978;SDS011;67169;50.268;8.694;2023-11-19T13:35:11;4.30;;;0.52;;
77978;SDS011;67169;50.268;8.694;2023-11-19T13:37:38;1.38;;;0.50;;
77978;SDS011;67169;50.268;8.694;2023-11-19T13:40:06;2.35;;;0.40;;
77978;SDS011;67169;50.268;8.694;2023-11-19T13:42:35;3.63;;;0.55;;
77978;SDS011;67169;50.268;8.694;2023-11-19T13:45:02;2.42;;;0.73;;
77978;SDS011;67169;50.268;8.694;2023-11-19T13:47:31;4.95;;;0.90;;
77978;SDS011;67169;50.268;8.694;2023-11-19T13:49:57;5.10;;;0.60;;
77978;SDS011;67169;50.268;8.694;2023-11-19T13:52:24;2.97;;;0.70;;
77978;SDS011;67169;50.268;8.694;2023-11-19T13:54:50;5.10;;;0.68;;
77978;SDS011;67169;50.268;8.694;2023-11-19T13:57:17;2.75;;;0.68;;
77978;SDS011;67169;50.268;8.694;2023-11-19T13:59:43;2.75;;;1.20;;
77978;SDS011;67169;50.268;8.694;2023-11-19T14:02:10;5.22;;;0.70;;
77978;SDS011;67169;50.268;8.694;2023-11-19T14:04:38;2.10;;;0.88;;
77978;SDS011;67169;50.268;8.694;2023-11-19T14:07:05;2.30;;;0.52;;
77978;SDS011;67169;50.268;8.694;2023-11-19T14:09:31;2.50;;;0.55;;
77978;SDS011;67169;50.268;8.694;2023-11-19T14:11:58;2.22;;;0.60;;
77978;SDS011;67169;50.268;8.694;2023-11-19T14:14:24;1.52;;;0.38;;
77978;SDS011;67169;50.268;8.694;2023-11-19T14:16:51;2.03;;;0.55;;
77978;SDS011;67169;50.268;8.694;2023-11-19T14:19:17;6.22;;;0.93;;
77978;SDS011;67169;50.268;8.694;2023-11-19T14:21:45;2.35;;;0.57;;
77978;SDS011;67169;50.268;8.694;2023-11-19T14:24:12;3.90;;;0.85;;
77978;SDS011;67169;50.268;8.694;2023-11-19T14:26:39;2.95;;;0.90;;
77978;SDS011;67169;50.268;8.694;2023-11-19T14:29:05;2.40;;;0.45;;
77978;SDS011;67169;50.268;8.694;2023-11-19T14:31:32;2.17;;;0.63;;
77978;SDS011;67169;50.268;8.694;2023-11-19T14:33:58;2.03;;;0.73;;
77978;SDS011;67169;50.268;8.694;2023-11-19T14:36:26;3.10;;;0.82;;
77978;SDS011;67169;50.268;8.694;2023-11-19T14:38:54;3.05;;;0.73;;
77978;SDS011;67169;50.268;8.694;2023-11-19T14:41:20;3.35;;;0.77;;
77978;SDS011;67169;50.268;8.694;2023-11-19T14:43:47;6.28;;;1.55;;
77978;SDS011;67169;50.268;8.694;2023-11-19T14:46:14;3.55;;;0.80;;
77978;SDS011;67169;50.268;8.694;2023-11-19T14:48:40;2.53;;;0.45;;
77978;SDS011;67169;50.268;8.694;2023-11-19T14:51:07;2.55;;;0.63;;
77978;SDS011;67169;50.268;8.694;2023-11-19T14:53:33;5.25;;;0.65;;
77978;SDS011;67169;50.268;8.694;2023-11-19T14:56:01;3.30;;;0.55;;
77978;SDS011;67169;50.268;8.694;2023-11-19T14:58:29;3.78;;;0.68;;
77978;SDS011;67169;50.268;8.694;2023-11-19T15:00:56;2.85;;;0.47;;